createdAt,value
2022-11-13T00:01:25.469Z,12.40
2022-11-13T00:03:52.303Z,12.40
2022-11-13T00:06:19.592Z,12.50
2022-11-13T00:08:47.662Z,12.50
2022-11-13T00:11:18.429Z,12.50
2022-11-13T00:13:46.415Z,12.40
2022-11-13T00:16:16.689Z,12.30
2022-11-13T00:18:44.055Z,12.30
2022-11-13T00:21:17.384Z,12.30
2022-11-13T00:23:44.144Z,12.20
2022-11-13T00:26:23.123Z,12.30
2022-11-13T00:29:01.794Z,12.20
2022-11-13T00:31:29.223Z,12.30
2022-11-13T00:36:44.669Z,12.30
2022-11-13T00:39:11.329Z,12.30
2022-11-13T00:41:37.987Z,12.20
2022-11-13T00:44:04.875Z,12.20
2022-11-13T00:46:31.589Z,12.20
2022-11-13T00:48:58.232Z,12.20
2022-11-13T00:51:24.899Z,12.30
2022-11-13T00:53:51.651Z,12.30
2022-11-13T00:56:18.294Z,12.40
2022-11-13T00:58:45.120Z,12.30
2022-11-13T01:01:14.668Z,12.30
2022-11-13T01:03:41.567Z,12.20
2022-11-13T01:06:21.531Z,12.20
2022-11-13T01:08:49.229Z,12.20
2022-11-13T01:11:20.929Z,12.20
2022-11-13T01:13:49.995Z,12.20
2022-11-13T01:16:18.713Z,12.30
2022-11-13T01:18:45.515Z,12.30
2022-11-13T01:21:15.378Z,12.30
2022-11-13T01:23:42.281Z,12.20
2022-11-13T01:26:18.324Z,12.20
2022-11-13T01:28:45.693Z,12.30
2022-11-13T01:31:16.655Z,12.30
2022-11-13T01:33:44.715Z,12.30
2022-11-13T01:36:23.016Z,12.40
2022-11-13T01:38:50.634Z,12.40
2022-11-13T01:41:27.631Z,12.40
2022-11-13T01:43:55.445Z,12.40
2022-11-13T01:46:32.105Z,12.40
2022-11-13T01:49:04.639Z,12.30
2022-11-13T01:51:41.895Z,12.30
2022-11-13T01:54:14.222Z,12.30
2022-11-13T01:56:41.234Z,12.30
2022-11-13T01:59:30.457Z,12.30
2022-11-13T02:01:57.924Z,12.10
2022-11-13T02:04:25.658Z,12.10
2022-11-13T02:06:56.372Z,12.00
2022-11-13T02:09:27.928Z,12.00
2022-11-13T02:11:55.702Z,12.00
2022-11-13T02:14:25.620Z,12.00
2022-11-13T02:16:56.830Z,11.90
2022-11-13T02:19:30.138Z,11.90
2022-11-13T02:22:03.565Z,11.80
2022-11-13T02:24:38.098Z,11.90
2022-11-13T02:27:10.607Z,11.80
2022-11-13T02:29:37.302Z,11.70
2022-11-13T02:32:04.122Z,11.70
2022-11-13T02:34:30.794Z,11.80
2022-11-13T02:36:57.505Z,11.80
2022-11-13T02:39:24.289Z,11.80
2022-11-13T02:41:51.010Z,11.70
2022-11-13T02:44:17.742Z,11.70
2022-11-13T02:46:44.526Z,11.70
2022-11-13T02:49:11.363Z,11.80
2022-11-13T02:51:38.035Z,11.80
2022-11-13T02:54:04.926Z,11.80
2022-11-13T02:56:31.615Z,11.80
2022-11-13T02:58:58.240Z,11.80
2022-11-13T03:01:24.984Z,11.70
2022-11-13T03:03:58.898Z,11.80
2022-11-13T03:06:25.725Z,11.90
2022-11-13T03:08:52.744Z,11.90
2022-11-13T03:11:19.457Z,11.90
2022-11-13T03:13:46.171Z,12.00
2022-11-13T03:16:15.457Z,12.00
2022-11-13T03:18:42.424Z,12.00
2022-11-13T03:21:14.081Z,12.00
2022-11-13T03:23:42.290Z,12.00
2022-11-13T03:26:11.212Z,12.00
2022-11-13T03:28:38.396Z,12.00
2022-11-13T03:31:05.853Z,12.10
2022-11-13T03:33:32.805Z,12.20
2022-11-13T03:35:59.664Z,12.20
2022-11-13T03:38:26.909Z,12.20
2022-11-13T03:40:54.030Z,12.20
2022-11-13T03:43:21.233Z,12.30
2022-11-13T03:45:47.981Z,12.30
2022-11-13T03:48:15.996Z,12.30
2022-11-13T03:50:45.763Z,12.30
2022-11-13T03:53:13.365Z,12.30
2022-11-13T03:55:40.237Z,12.30
2022-11-13T03:58:06.958Z,12.30
2022-11-13T04:00:33.991Z,12.30
2022-11-13T04:03:00.779Z,12.30
2022-11-13T04:05:27.970Z,12.30
2022-11-13T04:07:54.797Z,12.30
2022-11-13T04:10:21.964Z,12.30
2022-11-13T04:12:48.685Z,12.30
2022-11-13T04:15:15.662Z,12.30
2022-11-13T04:17:42.291Z,12.20
2022-11-13T04:20:09.722Z,12.20
2022-11-13T04:22:36.429Z,12.20
2022-11-13T04:25:03.706Z,12.10
2022-11-13T04:27:30.459Z,12.00
2022-11-13T04:29:57.076Z,12.00
2022-11-13T04:32:23.953Z,12.00
2022-11-13T04:34:50.646Z,11.90
2022-11-13T04:37:17.348Z,11.90
2022-11-13T04:39:44.030Z,11.90
2022-11-13T04:42:50.298Z,11.80
2022-11-13T04:45:19.220Z,11.70
2022-11-13T04:47:46.173Z,11.80
2022-11-13T04:50:14.554Z,11.70
2022-11-13T04:52:41.712Z,11.60
2022-11-13T04:55:09.358Z,11.60
2022-11-13T04:57:36.318Z,11.60
2022-11-13T05:00:04.799Z,11.60
2022-11-13T05:02:31.418Z,11.60
2022-11-13T05:05:03.378Z,11.60
2022-11-13T05:07:31.580Z,11.60
2022-11-13T05:09:58.254Z,11.40
2022-11-13T05:12:24.905Z,11.40
2022-11-13T05:14:51.577Z,11.40
2022-11-13T05:17:18.380Z,11.40
2022-11-13T05:19:45.090Z,11.40
2022-11-13T05:22:11.746Z,11.40
2022-11-13T05:24:38.467Z,11.30
2022-11-13T05:27:05.201Z,11.20
2022-11-13T05:29:31.851Z,11.20
2022-11-13T05:31:58.557Z,11.20
2022-11-13T05:34:25.781Z,11.10
2022-11-13T05:36:52.458Z,11.10
2022-11-13T05:39:19.070Z,11.10
2022-11-13T05:41:45.773Z,11.10
2022-11-13T05:44:12.465Z,11.10
2022-11-13T05:46:39.491Z,11.20
2022-11-13T05:49:06.399Z,11.20
2022-11-13T05:51:34.125Z,11.20
2022-11-13T05:54:01.620Z,11.20
2022-11-13T05:56:31.477Z,11.30
2022-11-13T05:58:59.326Z,11.30
2022-11-13T06:01:38.243Z,11.30
2022-11-13T06:04:06.984Z,11.30
2022-11-13T06:06:34.519Z,11.30
2022-11-13T06:09:03.494Z,11.40
2022-11-13T06:11:30.839Z,11.40
2022-11-13T06:13:58.674Z,11.40
2022-11-13T06:16:28.250Z,11.40
2022-11-13T06:18:57.521Z,11.30
2022-11-13T06:21:26.982Z,11.30
2022-11-13T06:23:54.629Z,11.20
2022-11-13T06:26:23.638Z,11.20
2022-11-13T06:28:50.933Z,11.20
2022-11-13T06:31:20.158Z,11.10
2022-11-13T06:33:47.246Z,11.10
2022-11-13T06:36:16.499Z,11.10
2022-11-13T06:38:43.834Z,11.10
2022-11-13T06:41:12.880Z,11.20
2022-11-13T06:43:39.591Z,11.20
2022-11-13T06:46:10.082Z,11.10
2022-11-13T06:48:36.765Z,11.10
2022-11-13T06:51:05.578Z,11.10
2022-11-13T06:53:33.153Z,11.10
2022-11-13T06:56:00.380Z,11.10
2022-11-13T06:58:28.033Z,11.10
2022-11-13T07:00:54.964Z,11.20
2022-11-13T07:03:26.930Z,11.20
2022-11-13T07:05:53.625Z,11.20
2022-11-13T07:08:20.293Z,11.30
2022-11-13T07:10:57.446Z,11.40
2022-11-13T07:13:25.826Z,11.50
2022-11-13T07:15:52.836Z,11.60
2022-11-13T07:18:23.874Z,11.60
2022-11-13T07:20:50.924Z,11.70
2022-11-13T07:23:17.593Z,11.80
2022-11-13T07:25:44.316Z,11.80
2022-11-13T07:28:11.069Z,11.90
2022-11-13T07:30:37.769Z,12.00
2022-11-13T07:33:05.496Z,12.00
2022-11-13T07:35:32.230Z,12.10
2022-11-13T07:37:59.311Z,12.10
2022-11-13T07:40:26.208Z,12.20
2022-11-13T07:42:59.944Z,12.20
2022-11-13T07:45:28.044Z,12.30
2022-11-13T07:48:13.264Z,12.40
2022-11-13T07:50:40.127Z,12.40
2022-11-13T07:53:08.486Z,12.50
2022-11-13T07:55:35.763Z,12.60
2022-11-13T07:58:03.150Z,12.60
2022-11-13T08:00:33.046Z,12.70
2022-11-13T08:03:08.379Z,12.70
2022-11-13T08:05:35.589Z,12.80
2022-11-13T08:08:02.785Z,12.90
2022-11-13T08:10:30.158Z,12.90
2022-11-13T08:13:05.618Z,13.00
2022-11-13T08:15:33.349Z,13.10
2022-11-13T08:18:01.790Z,13.10
2022-11-13T08:20:30.431Z,13.20
2022-11-13T08:22:58.532Z,13.20
2022-11-13T08:25:25.515Z,13.20
2022-11-13T08:27:53.760Z,13.30
2022-11-13T08:30:21.268Z,13.40
2022-11-13T08:32:48.731Z,13.40
2022-11-13T08:35:19.190Z,13.40
2022-11-13T08:37:46.789Z,13.50
2022-11-13T08:40:13.555Z,13.50
2022-11-13T08:42:40.240Z,13.50
2022-11-13T08:45:07.790Z,13.60
2022-11-13T08:47:34.493Z,13.60
2022-11-13T08:50:01.224Z,13.70
2022-11-13T08:52:27.937Z,13.70
2022-11-13T08:54:54.716Z,13.70
2022-11-13T08:57:21.592Z,13.80
2022-11-13T08:59:49.445Z,13.80
2022-11-13T09:02:16.670Z,13.90
2022-11-13T09:04:43.699Z,14.00
2022-11-13T09:07:11.479Z,14.00
2022-11-13T09:09:38.362Z,14.00
2022-11-13T09:12:05.437Z,14.10
2022-11-13T09:14:32.407Z,14.00
2022-11-13T09:16:59.135Z,14.00
2022-11-13T09:19:26.003Z,14.10
2022-11-13T09:21:53.356Z,14.20
2022-11-13T09:24:20.148Z,14.20
2022-11-13T09:26:46.840Z,14.20
2022-11-13T09:29:13.567Z,14.30
2022-11-13T09:31:41.182Z,14.30
2022-11-13T09:34:08.994Z,14.30
2022-11-13T09:36:36.545Z,14.30
2022-11-13T09:39:04.504Z,14.40
2022-11-13T09:41:50.107Z,14.30
2022-11-13T09:44:31.431Z,14.40
2022-11-13T09:47:12.882Z,14.40
2022-11-13T09:49:48.765Z,14.50
2022-11-13T09:52:24.370Z,14.50
2022-11-13T09:54:51.010Z,14.60
2022-11-13T09:57:40.952Z,14.60
2022-11-13T10:00:21.872Z,14.60
2022-11-13T10:03:03.847Z,14.70
2022-11-13T10:05:36.584Z,14.80
2022-11-13T10:08:21.960Z,14.80
2022-11-13T10:11:26.016Z,14.90
2022-11-13T10:13:57.613Z,14.90
2022-11-13T10:16:43.505Z,15.00
2022-11-13T10:19:21.617Z,15.00
2022-11-13T10:22:19.519Z,15.00
2022-11-13T10:24:46.408Z,15.10
2022-11-13T10:27:15.208Z,15.30
2022-11-13T10:29:48.641Z,15.50
2022-11-13T10:32:24.284Z,15.80
2022-11-13T10:35:09.479Z,17.00
2022-11-13T10:37:59.287Z,18.50
2022-11-13T10:40:37.357Z,18.00
2022-11-13T10:43:14.646Z,19.60
2022-11-13T10:45:43.517Z,20.50
2022-11-13T10:48:31.452Z,19.90
2022-11-13T10:51:19.904Z,19.10
2022-11-13T10:53:47.281Z,18.90
2022-11-13T10:56:26.825Z,20.80
2022-11-13T10:59:17.267Z,22.70
2022-11-13T11:01:46.270Z,24.60
2022-11-13T11:04:19.707Z,24.80
2022-11-13T11:07:18.559Z,27.00
2022-11-13T11:09:38.081Z,29.20
2022-11-13T11:12:17.175Z,31.60
2022-11-13T11:15:04.740Z,32.30
2022-11-13T11:17:45.986Z,32.80
2022-11-13T11:20:43.506Z,32.90
2022-11-13T11:23:40.746Z,32.80
2022-11-13T11:26:17.631Z,32.70
2022-11-13T11:29:08.674Z,32.30
2022-11-13T11:31:47.580Z,32.20
2022-11-13T11:34:26.212Z,32.00
2022-11-13T11:37:30.754Z,32.60
2022-11-13T11:40:05.028Z,33.50
2022-11-13T11:42:50.721Z,33.00
2022-11-13T11:45:23.472Z,33.40
2022-11-13T11:47:50.687Z,33.20
2022-11-13T11:50:27.817Z,32.90
2022-11-13T11:53:06.283Z,33.50
2022-11-13T11:55:54.474Z,33.80
2022-11-13T11:58:58.514Z,33.90
2022-11-13T12:01:41.700Z,33.90
2022-11-13T12:04:34.945Z,34.10
2022-11-13T12:07:07.768Z,34.30
2022-11-13T12:09:39.471Z,34.70
2022-11-13T12:12:26.685Z,36.30
2022-11-13T12:15:24.435Z,35.30
2022-11-13T12:18:05.524Z,34.80
2022-11-13T12:21:00.785Z,34.10
2022-11-13T12:23:45.892Z,32.20
2022-11-13T12:26:34.174Z,29.40
2022-11-13T12:29:12.127Z,27.30
2022-11-13T12:32:20.486Z,26.20
2022-11-13T12:35:05.563Z,24.30
2022-11-13T12:37:38.216Z,24.80
2022-11-13T12:40:32.869Z,24.60
2022-11-13T12:43:43.264Z,23.80
2022-11-13T12:46:12.301Z,23.60
2022-11-13T12:48:44.335Z,27.50
2022-11-13T12:51:14.117Z,30.40
2022-11-13T12:53:52.438Z,31.70
2022-11-13T12:56:26.220Z,31.30
2022-11-13T13:01:59.465Z,28.40
2022-11-13T13:04:47.808Z,28.30
2022-11-13T13:07:22.949Z,29.70
2022-11-13T13:09:50.977Z,29.90
2022-11-13T13:12:55.030Z,29.10
2022-11-13T13:15:37.031Z,29.20
2022-11-13T13:18:17.349Z,28.70
2022-11-13T13:21:07.851Z,28.20
2022-11-13T13:23:36.566Z,28.20
2022-11-13T13:26:27.043Z,28.50
2022-11-13T13:29:02.279Z,29.60
2022-11-13T13:31:39.011Z,28.30
2022-11-13T13:34:39.416Z,26.60
2022-11-13T13:37:09.177Z,25.00
2022-11-13T13:40:00.039Z,24.80
2022-11-13T13:43:01.339Z,26.30
2022-11-13T13:45:39.910Z,28.20
2022-11-13T13:48:14.389Z,28.30
2022-11-13T13:50:49.210Z,28.50
2022-11-13T13:53:22.255Z,28.60
2022-11-13T13:55:52.510Z,28.50
2022-11-13T13:58:26.796Z,27.90
2022-11-13T14:01:19.474Z,26.70
2022-11-13T14:03:47.095Z,26.10
2022-11-13T14:06:23.702Z,26.30
2022-11-13T14:08:50.740Z,26.40
2022-11-13T14:11:20.576Z,26.20
2022-11-13T14:13:47.609Z,25.40
2022-11-13T14:16:14.344Z,24.90
2022-11-13T14:18:41.082Z,24.10
2022-11-13T14:21:18.204Z,23.20
2022-11-13T14:23:48.412Z,22.30
2022-11-13T14:26:15.376Z,21.00
2022-11-13T14:28:56.874Z,20.80
2022-11-13T14:31:41.513Z,19.80
2022-11-13T14:34:11.040Z,19.20
2022-11-13T14:36:39.549Z,18.80
2022-11-13T14:39:06.414Z,18.60
2022-11-13T14:41:46.483Z,18.40
2022-11-13T14:44:13.279Z,18.10
2022-11-13T14:46:47.448Z,18.00
2022-11-13T14:49:37.558Z,17.90
2022-11-13T14:52:04.754Z,17.70
2022-11-13T14:54:53.111Z,17.80
2022-11-13T14:57:19.431Z,17.80
2022-11-13T14:59:46.142Z,17.80
2022-11-13T15:02:13.354Z,17.60
2022-11-13T15:04:40.842Z,17.40
2022-11-13T15:07:30.863Z,17.20
2022-11-13T15:09:59.345Z,17.10
2022-11-13T15:12:26.646Z,17.00
2022-11-13T15:14:53.956Z,16.90
2022-11-13T15:17:22.200Z,16.80
2022-11-13T15:19:52.519Z,16.70
2022-11-13T15:22:27.300Z,16.60
2022-11-13T15:24:55.350Z,16.50
2022-11-13T15:27:22.103Z,16.40
2022-11-13T15:29:48.911Z,16.30
2022-11-13T15:32:16.406Z,16.30
2022-11-13T15:34:43.091Z,16.30
2022-11-13T15:37:15.244Z,16.30
2022-11-13T15:39:42.661Z,16.20
2022-11-13T15:42:15.842Z,16.10
2022-11-13T15:44:42.867Z,15.90
2022-11-13T15:47:36.562Z,15.80
2022-11-13T15:50:14.370Z,15.80
2022-11-13T15:52:47.688Z,15.70
2022-11-13T15:55:31.924Z,15.60
2022-11-13T15:57:59.241Z,15.60
2022-11-13T16:00:28.364Z,15.50
2022-11-13T16:02:56.741Z,15.40
2022-11-13T16:05:25.804Z,15.20
2022-11-13T16:07:53.925Z,15.30
2022-11-13T16:10:26.942Z,15.30
2022-11-13T16:12:54.181Z,15.40
2022-11-13T16:15:21.423Z,15.30
2022-11-13T16:17:51.911Z,15.30
2022-11-13T16:20:18.835Z,15.30
2022-11-13T16:22:45.851Z,15.10
2022-11-13T16:25:16.246Z,15.00
2022-11-13T16:27:43.435Z,14.90
2022-11-13T16:30:20.030Z,14.90
2022-11-13T16:32:47.325Z,14.80
2022-11-13T16:35:15.888Z,14.80
2022-11-13T16:37:43.288Z,14.80
2022-11-13T16:40:20.658Z,14.70
2022-11-13T16:42:47.488Z,14.60
2022-11-13T16:45:14.264Z,14.40
2022-11-13T16:47:41.325Z,14.40
2022-11-13T16:50:24.524Z,14.40
2022-11-13T16:52:51.285Z,14.30
2022-11-13T16:55:18.148Z,14.40
2022-11-13T16:57:44.939Z,14.30
2022-11-13T17:00:15.250Z,14.30
2022-11-13T17:02:42.452Z,14.30
2022-11-13T17:05:14.409Z,14.20
2022-11-13T17:07:41.812Z,14.10
2022-11-13T17:10:32.231Z,14.10
2022-11-13T17:12:59.849Z,14.10
2022-11-13T17:15:27.238Z,14.00
2022-11-13T17:17:57.421Z,14.10
2022-11-13T17:20:24.457Z,14.20
2022-11-13T17:22:51.242Z,14.10
2022-11-13T17:25:20.423Z,14.10
2022-11-13T17:27:47.049Z,14.00
2022-11-13T17:30:14.549Z,14.00
2022-11-13T17:32:41.306Z,14.00
2022-11-13T17:35:09.313Z,13.80
2022-11-13T17:37:36.033Z,13.90
2022-11-13T17:40:02.706Z,13.80
2022-11-13T17:42:29.399Z,13.80
2022-11-13T17:44:56.253Z,13.70
2022-11-13T17:47:23.001Z,13.70
2022-11-13T17:49:49.757Z,13.60
2022-11-13T17:52:16.707Z,13.70
2022-11-13T17:54:43.417Z,13.70
2022-11-13T17:57:10.345Z,13.70
2022-11-13T17:59:37.434Z,13.70
2022-11-13T18:02:04.332Z,13.60
2022-11-13T18:04:31.042Z,13.60
2022-11-13T18:06:58.493Z,13.70
2022-11-13T18:09:25.175Z,13.70
2022-11-13T18:11:51.955Z,13.70
2022-11-13T18:14:19.224Z,13.90
2022-11-13T18:16:45.923Z,14.00
2022-11-13T18:19:13.145Z,14.10
2022-11-13T18:21:40.754Z,14.20
2022-11-13T18:24:14.362Z,14.20
2022-11-13T18:26:41.514Z,14.20
2022-11-13T18:29:08.711Z,14.20
2022-11-13T18:31:35.980Z,14.20
2022-11-13T18:34:04.587Z,14.10
2022-11-13T18:36:32.257Z,14.10
2022-11-13T18:39:01.770Z,14.10
2022-11-13T18:41:29.084Z,14.00
2022-11-13T18:43:55.766Z,14.10
2022-11-13T18:46:22.827Z,14.20
2022-11-13T18:48:49.641Z,14.30
2022-11-13T18:51:24.744Z,14.30
2022-11-13T18:53:52.949Z,14.20
2022-11-13T18:56:23.167Z,14.20
2022-11-13T18:58:51.218Z,14.10
2022-11-13T19:01:23.164Z,14.10
2022-11-13T19:04:22.230Z,14.10
2022-11-13T19:06:40.554Z,14.20
2022-11-13T19:09:14.589Z,14.30
2022-11-13T19:11:42.118Z,14.40
2022-11-13T19:14:09.907Z,14.50
2022-11-13T19:16:38.736Z,14.40
2022-11-13T19:19:08.549Z,14.50
2022-11-13T19:21:36.286Z,14.50
2022-11-13T19:24:03.365Z,14.60
2022-11-13T19:26:30.232Z,14.60
2022-11-13T19:28:57.339Z,14.60
2022-11-13T19:31:27.062Z,14.50
2022-11-13T19:33:55.854Z,14.60
2022-11-13T19:36:24.679Z,14.60
2022-11-13T19:38:52.726Z,14.70
2022-11-13T19:41:20.341Z,14.60
2022-11-13T19:43:48.596Z,14.60
2022-11-13T19:46:17.202Z,14.60
2022-11-13T19:48:46.092Z,14.70
2022-11-13T19:51:12.760Z,14.70
2022-11-13T19:53:40.180Z,14.60
2022-11-13T19:56:07.475Z,14.50
2022-11-13T19:58:34.116Z,14.50
2022-11-13T20:01:08.688Z,14.40
2022-11-13T20:03:35.809Z,14.30
2022-11-13T20:06:02.513Z,14.30
2022-11-13T20:08:29.704Z,14.30
2022-11-13T20:11:04.738Z,14.20
2022-11-13T20:13:36.577Z,14.10
2022-11-13T20:16:04.538Z,14.20
2022-11-13T20:18:31.669Z,14.30
2022-11-13T20:20:59.246Z,14.20
2022-11-13T20:23:26.410Z,14.20
2022-11-13T20:25:53.019Z,14.20
2022-11-13T20:28:20.431Z,14.10
2022-11-13T20:30:47.196Z,14.10
2022-11-13T20:33:16.207Z,14.10
2022-11-13T20:35:54.354Z,13.90
2022-11-13T20:38:21.027Z,13.90
2022-11-13T20:40:47.772Z,13.80
2022-11-13T20:43:14.494Z,13.70
2022-11-13T20:45:41.157Z,13.60
2022-11-13T20:48:07.869Z,13.60
2022-11-13T20:50:38.039Z,13.80
2022-11-13T20:53:05.760Z,13.80
2022-11-13T20:55:32.490Z,13.70
2022-11-13T20:57:59.283Z,13.70
2022-11-13T21:00:26.082Z,13.90
2022-11-13T21:02:52.884Z,13.80
2022-11-13T21:05:19.733Z,13.90
2022-11-13T21:07:46.411Z,13.80
2022-11-13T21:10:13.155Z,13.90
2022-11-13T21:12:40.113Z,13.80
2022-11-13T21:15:07.430Z,13.80
2022-11-13T21:17:34.123Z,13.80
2022-11-13T21:20:01.325Z,13.80
2022-11-13T21:22:28.016Z,13.80
2022-11-13T21:24:54.715Z,13.70
2022-11-13T21:27:21.399Z,13.70
2022-11-13T21:29:48.063Z,13.60
2022-11-13T21:32:14.770Z,13.50
2022-11-13T21:34:41.685Z,13.50
2022-11-13T21:37:10.888Z,13.40
2022-11-13T21:39:37.597Z,13.50
2022-11-13T21:42:04.590Z,13.50
2022-11-13T21:44:31.272Z,13.30
2022-11-13T21:46:58.013Z,13.30
2022-11-13T21:49:24.825Z,13.30
2022-11-13T21:51:51.551Z,13.30
2022-11-13T21:54:18.275Z,13.30
2022-11-13T21:56:45.263Z,13.20
2022-11-13T21:59:12.738Z,13.30
2022-11-13T22:01:39.592Z,13.40
2022-11-13T22:04:06.767Z,13.40
2022-11-13T22:06:36.308Z,13.40
2022-11-13T22:09:17.244Z,13.40
2022-11-13T22:11:44.546Z,13.20
2022-11-13T22:14:11.517Z,13.30
2022-11-13T22:16:41.387Z,13.20
2022-11-13T22:19:11.688Z,13.20
2022-11-13T22:21:39.822Z,13.20
2022-11-13T22:24:07.082Z,13.10
2022-11-13T22:26:37.797Z,13.10
2022-11-13T22:29:05.313Z,13.00
2022-11-13T22:31:33.387Z,13.00
2022-11-13T22:34:00.445Z,12.90
2022-11-13T22:36:33.334Z,12.90
2022-11-13T22:39:00.317Z,13.00
2022-11-13T22:41:31.035Z,13.00
2022-11-13T22:44:04.977Z,12.90
2022-11-13T22:46:33.455Z,12.90
2022-11-13T22:49:01.895Z,12.90
2022-11-13T22:51:38.350Z,13.00
2022-11-13T22:54:08.780Z,13.00
2022-11-13T22:56:38.211Z,13.10
2022-11-13T22:59:06.790Z,13.00
2022-11-13T23:01:36.135Z,13.00
2022-11-13T23:04:05.305Z,13.00
2022-11-13T23:06:34.625Z,13.00
2022-11-13T23:09:02.139Z,13.00
2022-11-13T23:11:33.663Z,12.90
2022-11-13T23:14:03.740Z,12.90
2022-11-13T23:16:31.504Z,13.00
2022-11-13T23:18:59.565Z,12.90
2022-11-13T23:21:28.083Z,12.90
2022-11-13T23:23:55.373Z,12.80
2022-11-13T23:26:23.000Z,12.80
2022-11-13T23:28:49.769Z,12.80
2022-11-13T23:31:16.562Z,12.80
2022-11-13T23:33:43.715Z,12.70
2022-11-13T23:36:11.975Z,12.70
2022-11-13T23:38:39.120Z,12.70
2022-11-13T23:41:06.563Z,12.60
2022-11-13T23:44:02.187Z,12.60
2022-11-13T23:46:20.275Z,12.70
2022-11-13T23:48:46.988Z,12.80
2022-11-13T23:51:13.635Z,12.90
2022-11-13T23:53:40.282Z,12.60
2022-11-13T23:56:07.659Z,12.60
2022-11-13T23:58:34.701Z,12.50
